createdAt,value
2019-02-16T00:03:00.854Z,3.21
2019-02-16T00:05:29.634Z,3.08
2019-02-16T00:07:58.434Z,3.01
2019-02-16T00:10:27.203Z,3.04
2019-02-16T00:12:55.941Z,3.01
2019-02-16T00:15:24.624Z,2.95
2019-02-16T00:17:53.343Z,2.90
2019-02-16T00:20:22.383Z,2.81
2019-02-16T00:22:51.078Z,2.75
2019-02-16T00:27:54.554Z,2.72
2019-02-16T00:31:03.049Z,2.67
2019-02-16T00:33:31.911Z,2.62
2019-02-16T00:36:00.825Z,2.55
2019-02-16T00:38:29.520Z,2.49
2019-02-16T00:43:50.606Z,2.28
2019-02-16T00:46:38.510Z,2.33
2019-02-16T00:49:07.209Z,2.23
2019-02-16T00:51:36.014Z,2.21
2019-02-16T00:54:04.640Z,2.14
2019-02-16T00:56:33.331Z,2.15
2019-02-16T00:59:01.988Z,2.17
2019-02-16T01:01:30.772Z,2.21
2019-02-16T01:03:59.466Z,2.20
2019-02-16T01:06:28.228Z,2.16
2019-02-16T01:08:57.066Z,2.12
2019-02-16T01:11:25.798Z,2.14
2019-02-16T01:13:54.422Z,2.05
2019-02-16T01:16:23.211Z,2.01
2019-02-16T01:18:51.790Z,1.99
2019-02-16T01:21:22.791Z,2.05
2019-02-16T01:23:50.765Z,1.99
2019-02-16T01:26:19.537Z,1.95
2019-02-16T01:28:48.142Z,1.85
2019-02-16T01:31:16.781Z,1.78
2019-02-16T01:33:45.673Z,1.70
2019-02-16T01:36:15.882Z,1.63
2019-02-16T01:38:44.471Z,1.63
2019-02-16T01:41:13.385Z,1.76
2019-02-16T01:43:42.073Z,1.73
2019-02-16T01:46:10.688Z,1.62
2019-02-16T01:48:39.287Z,1.62
2019-02-16T01:51:07.926Z,1.62
2019-02-16T01:53:36.532Z,1.63
2019-02-16T01:56:05.176Z,1.62
2019-02-16T01:58:33.788Z,1.59
2019-02-16T02:01:02.477Z,1.55
2019-02-16T02:03:31.097Z,1.54
2019-02-16T02:05:59.734Z,1.43
2019-02-16T02:08:28.372Z,1.35
2019-02-16T02:10:56.993Z,1.31
2019-02-16T02:13:25.609Z,1.38
2019-02-16T02:15:54.242Z,1.37
2019-02-16T02:18:22.850Z,1.42
2019-02-16T02:20:51.463Z,1.36
2019-02-16T02:23:20.121Z,1.18
2019-02-16T02:25:48.958Z,1.21
2019-02-16T02:28:19.237Z,1.25
2019-02-16T02:30:47.960Z,1.18
2019-02-16T02:33:16.602Z,1.23
2019-02-16T02:35:45.233Z,1.24
2019-02-16T02:38:13.888Z,1.27
2019-02-16T02:40:42.497Z,1.23
2019-02-16T02:43:11.158Z,1.13
2019-02-16T02:45:39.777Z,1.18
2019-02-16T02:48:08.419Z,1.10
2019-02-16T02:50:37.044Z,1.02
2019-02-16T02:53:05.659Z,1.08
2019-02-16T02:55:34.281Z,1.08
2019-02-16T02:58:02.906Z,1.09
2019-02-16T03:00:31.542Z,1.11
2019-02-16T03:03:00.151Z,1.05
2019-02-16T03:05:28.851Z,0.99
2019-02-16T03:07:57.531Z,0.97
2019-02-16T03:10:26.140Z,0.88
2019-02-16T03:12:54.764Z,0.80
2019-02-16T03:15:23.389Z,0.91
2019-02-16T03:17:51.993Z,0.86
2019-02-16T03:20:20.675Z,0.88
2019-02-16T03:23:12.308Z,0.90
2019-02-16T03:25:42.170Z,0.91
2019-02-16T03:28:31.666Z,0.91
2019-02-16T03:31:38.794Z,0.89
2019-02-16T03:34:45.889Z,0.89
2019-02-16T03:37:53.026Z,0.81
2019-02-16T03:40:21.666Z,0.72
2019-02-16T03:42:50.309Z,0.64
2019-02-16T03:45:18.987Z,0.43
2019-02-16T03:47:47.670Z,0.40
2019-02-16T03:50:16.254Z,0.34
2019-02-16T03:52:44.881Z,0.44
2019-02-16T03:55:13.582Z,0.33
2019-02-16T03:57:42.329Z,0.16
2019-02-16T04:00:11.008Z,0.12
2019-02-16T04:02:39.627Z,0.04
2019-02-16T04:05:08.321Z,0.20
2019-02-16T04:07:36.946Z,0.24
2019-02-16T04:10:05.849Z,0.23
2019-02-16T04:12:34.481Z,0.36
2019-02-16T04:15:03.105Z,0.41
2019-02-16T04:17:31.719Z,0.40
2019-02-16T04:20:00.348Z,0.36
2019-02-16T04:22:28.980Z,0.28
2019-02-16T04:24:57.678Z,0.25
2019-02-16T04:27:26.312Z,0.25
2019-02-16T04:29:54.931Z,0.27
2019-02-16T04:32:23.558Z,0.15
2019-02-16T04:37:26.669Z,0.08
2019-02-16T04:39:55.370Z,0.17
2019-02-16T04:45:38.053Z,0.22
2019-02-16T04:48:06.696Z,0.27
2019-02-16T04:50:35.310Z,0.33
2019-02-16T04:53:03.944Z,0.30
2019-02-16T04:55:32.573Z,0.35
2019-02-16T04:58:01.183Z,0.15
2019-02-16T05:00:29.810Z,0.09
2019-02-16T05:02:58.504Z,0.10
2019-02-16T05:05:46.347Z,0.15
2019-02-16T05:08:14.944Z,0.21
2019-02-16T05:10:43.600Z,0.13
2019-02-16T05:13:12.206Z,0.17
2019-02-16T05:15:40.833Z,-0.08
2019-02-16T05:18:09.462Z,-0.24
2019-02-16T05:20:38.091Z,-0.10
2019-02-16T05:23:06.721Z,-0.10
2019-02-16T05:25:35.379Z,-0.29
2019-02-16T05:28:03.999Z,-0.40
2019-02-16T05:30:32.623Z,-0.44
2019-02-16T05:33:01.255Z,-0.18
2019-02-16T05:35:29.886Z,-0.01
2019-02-16T05:37:58.517Z,0.08
2019-02-16T05:40:27.218Z,0.04
2019-02-16T05:42:55.853Z,0.03
2019-02-16T05:45:24.475Z,-0.07
2019-02-16T05:47:53.106Z,-0.07
2019-02-16T05:50:21.719Z,-0.08
2019-02-16T05:52:54.460Z,-0.09
2019-02-16T05:55:20.747Z,-0.10
2019-02-16T05:57:49.410Z,-0.21
2019-02-16T06:03:07.462Z,-0.58
2019-02-16T06:05:36.127Z,-0.51
2019-02-16T06:08:04.829Z,-0.55
2019-02-16T06:10:33.473Z,-0.56
2019-02-16T06:13:02.119Z,-0.64
2019-02-16T06:15:30.753Z,-0.62
2019-02-16T06:18:18.599Z,-0.72
2019-02-16T06:20:47.224Z,-0.75
2019-02-16T06:23:15.865Z,-0.57
2019-02-16T06:25:44.517Z,-0.66
2019-02-16T06:28:13.150Z,-0.65
2019-02-16T06:30:41.789Z,-0.55
2019-02-16T06:33:10.414Z,-0.49
2019-02-16T06:35:58.053Z,-0.56
2019-02-16T06:38:26.714Z,-0.59
2019-02-16T06:40:55.427Z,-0.50
2019-02-16T06:43:24.034Z,-0.38
2019-02-16T06:45:52.682Z,-0.40
2019-02-16T06:48:21.318Z,-0.64
2019-02-16T06:50:49.930Z,-0.58
2019-02-16T06:53:18.560Z,-0.51
2019-02-16T06:56:06.177Z,-0.41
2019-02-16T06:58:34.822Z,-0.37
2019-02-16T07:01:03.434Z,-0.33
2019-02-16T07:03:32.095Z,-0.35
2019-02-16T07:06:00.766Z,-0.37
2019-02-16T07:08:29.414Z,-0.35
2019-02-16T07:10:58.042Z,-0.38
2019-02-16T07:13:26.680Z,-0.45
2019-02-16T07:16:14.313Z,-0.49
2019-02-16T07:19:02.561Z,-0.55
2019-02-16T07:21:31.356Z,-0.41
2019-02-16T07:24:00.613Z,-0.30
2019-02-16T07:29:04.055Z,-0.36
2019-02-16T07:31:33.032Z,-0.49
2019-02-16T07:34:01.933Z,-0.46
2019-02-16T07:36:30.978Z,-0.49
2019-02-16T07:38:59.740Z,-0.36
2019-02-16T07:41:28.776Z,-0.29
2019-02-16T07:44:16.529Z,-0.15
2019-02-16T07:46:51.199Z,-0.16
2019-02-16T07:49:59.887Z,-0.28
2019-02-16T07:52:38.115Z,-0.28
2019-02-16T07:55:28.230Z,-0.10
2019-02-16T07:58:09.006Z,-0.04
2019-02-16T08:00:57.054Z,0.03
2019-02-16T08:03:44.742Z,0.12
2019-02-16T08:06:32.413Z,0.17
2019-02-16T08:09:20.132Z,0.20
2019-02-16T08:12:08.117Z,0.24
2019-02-16T08:14:55.949Z,0.37
2019-02-16T08:17:42.757Z,0.43
2019-02-16T08:23:15.656Z,0.69
2019-02-16T08:25:51.414Z,0.71
2019-02-16T08:28:39.132Z,0.76
2019-02-16T08:31:26.845Z,0.83
2019-02-16T08:34:14.437Z,0.99
2019-02-16T08:37:02.052Z,1.10
2019-02-16T08:39:49.667Z,1.34
2019-02-16T08:42:37.330Z,1.47
2019-02-16T08:45:25.344Z,1.62
2019-02-16T08:48:12.978Z,1.73
2019-02-16T08:51:00.683Z,1.94
2019-02-16T08:53:35.768Z,2.08
2019-02-16T08:56:23.379Z,2.34
2019-02-16T08:59:11.014Z,2.55
2019-02-16T09:01:58.651Z,2.71
2019-02-16T09:04:46.285Z,2.93
2019-02-16T09:07:33.934Z,3.03
2019-02-16T09:10:21.567Z,3.18
2019-02-16T09:13:09.381Z,3.25
2019-02-16T09:15:56.994Z,3.30
2019-02-16T09:18:31.824Z,3.38
2019-02-16T09:21:19.506Z,3.56
2019-02-16T09:27:15.346Z,3.73
2019-02-16T09:32:40.702Z,4.14
2019-02-16T09:35:28.330Z,4.52
2019-02-16T09:38:15.992Z,4.57
2019-02-16T09:41:03.609Z,4.59
2019-02-16T09:43:42.034Z,4.79
2019-02-16T09:46:29.655Z,4.91
2019-02-16T09:49:04.911Z,5.10
2019-02-16T09:51:48.484Z,5.20
2019-02-16T09:54:25.129Z,5.29
2019-02-16T09:57:12.765Z,5.50
2019-02-16T10:00:00.413Z,5.45
2019-02-16T10:02:48.031Z,5.49
2019-02-16T10:05:35.669Z,5.64
2019-02-16T10:08:23.302Z,5.72
2019-02-16T10:11:10.943Z,5.73
2019-02-16T10:13:58.562Z,5.79
2019-02-16T10:16:46.229Z,6.01
2019-02-16T10:19:33.855Z,6.17
2019-02-16T10:22:21.571Z,6.18
2019-02-16T10:25:09.228Z,6.20
2019-02-16T10:27:56.837Z,6.23
2019-02-16T10:30:33.353Z,6.35
2019-02-16T10:33:20.947Z,6.68
2019-02-16T10:36:08.608Z,6.72
2019-02-16T10:38:56.670Z,6.79
2019-02-16T10:41:44.351Z,6.92
2019-02-16T10:44:32.156Z,6.92
2019-02-16T10:47:19.819Z,7.11
2019-02-16T10:50:07.447Z,7.18
2019-02-16T10:52:55.090Z,7.22
2019-02-16T10:55:42.725Z,7.28
2019-02-16T10:58:30.358Z,7.41
2019-02-16T11:01:06.730Z,7.55
2019-02-16T11:03:54.349Z,7.64
2019-02-16T11:06:41.980Z,7.73
2019-02-16T11:09:29.614Z,7.95
2019-02-16T11:12:17.331Z,8.04
2019-02-16T11:15:00.903Z,7.98
2019-02-16T11:17:48.533Z,8.21
2019-02-16T11:20:36.161Z,8.25
2019-02-16T11:23:18.028Z,8.21
2019-02-16T11:26:05.675Z,8.33
2019-02-16T11:28:53.302Z,8.39
2019-02-16T11:31:40.928Z,8.47
2019-02-16T11:34:28.550Z,8.51
2019-02-16T11:37:16.274Z,8.66
2019-02-16T11:39:51.828Z,8.80
2019-02-16T11:42:39.472Z,8.94
2019-02-16T11:45:27.189Z,9.07
2019-02-16T11:48:14.871Z,9.02
2019-02-16T11:50:49.240Z,9.05
2019-02-16T11:53:36.878Z,9.18
2019-02-16T11:56:24.516Z,9.21
2019-02-16T11:59:12.152Z,9.35
2019-02-16T12:01:59.825Z,9.36
2019-02-16T12:04:47.442Z,9.49
2019-02-16T12:07:35.090Z,9.54
2019-02-16T12:10:22.889Z,9.60
2019-02-16T12:13:10.526Z,9.64
2019-02-16T12:15:59.945Z,9.67
2019-02-16T12:18:47.593Z,9.73
2019-02-16T12:21:35.213Z,9.80
2019-02-16T12:24:19.821Z,9.99
2019-02-16T12:27:07.442Z,10.05
2019-02-16T12:29:55.099Z,10.07
2019-02-16T12:32:42.731Z,10.09
2019-02-16T12:35:30.341Z,10.22
2019-02-16T12:38:17.996Z,10.35
2019-02-16T12:41:05.637Z,10.43
2019-02-16T12:43:42.092Z,10.35
2019-02-16T12:46:16.850Z,10.37
2019-02-16T12:49:04.482Z,10.63
2019-02-16T12:51:52.096Z,10.62
2019-02-16T12:54:39.727Z,10.68
2019-02-16T12:57:27.355Z,10.68
2019-02-16T13:00:14.983Z,10.81
2019-02-16T13:02:57.942Z,10.71
2019-02-16T13:05:45.561Z,10.75
2019-02-16T13:08:31.065Z,10.84
2019-02-16T13:11:18.833Z,10.89
2019-02-16T13:14:06.454Z,11.03
2019-02-16T13:16:54.074Z,11.09
2019-02-16T13:19:41.760Z,11.08
2019-02-16T13:22:29.382Z,11.24
2019-02-16T13:25:04.233Z,11.24
2019-02-16T13:27:51.907Z,11.30
2019-02-16T13:30:39.565Z,11.34
2019-02-16T13:33:27.275Z,11.25
2019-02-16T13:36:14.909Z,11.33
2019-02-16T13:38:49.665Z,11.32
2019-02-16T13:41:24.934Z,11.33
2019-02-16T13:44:07.505Z,11.51
2019-02-16T13:46:46.454Z,11.61
2019-02-16T13:49:34.202Z,11.70
2019-02-16T13:52:21.834Z,11.76
2019-02-16T13:55:11.091Z,11.92
2019-02-16T13:57:58.894Z,11.92
2019-02-16T14:00:46.552Z,11.90
2019-02-16T14:03:34.187Z,11.96
2019-02-16T14:06:21.839Z,12.04
2019-02-16T14:09:09.445Z,12.16
2019-02-16T14:11:57.067Z,12.04
2019-02-16T14:14:44.690Z,12.12
2019-02-16T14:17:32.331Z,12.12
2019-02-16T14:20:01.039Z,12.00
2019-02-16T14:22:29.661Z,12.05
2019-02-16T14:25:00.514Z,12.07
2019-02-16T14:27:29.140Z,12.13
2019-02-16T14:29:57.740Z,12.19
2019-02-16T14:32:26.373Z,12.19
2019-02-16T14:34:54.989Z,12.30
2019-02-16T14:37:42.663Z,12.21
2019-02-16T14:40:11.308Z,12.20
2019-02-16T14:42:39.924Z,12.17
2019-02-16T14:45:10.083Z,12.18
2019-02-16T14:47:39.022Z,12.27
2019-02-16T14:50:08.345Z,12.18
2019-02-16T14:52:36.989Z,12.22
2019-02-16T14:55:06.875Z,12.22
2019-02-16T14:57:35.509Z,12.22
2019-02-16T15:00:04.471Z,12.23
2019-02-16T15:02:33.107Z,12.18
2019-02-16T15:05:01.742Z,12.15
2019-02-16T15:07:30.398Z,12.09
2019-02-16T15:09:59.029Z,12.05
2019-02-16T15:12:27.653Z,12.09
2019-02-16T15:14:56.277Z,12.13
2019-02-16T15:17:25.507Z,12.23
2019-02-16T15:19:54.422Z,12.15
2019-02-16T15:22:23.895Z,12.16
2019-02-16T15:24:52.917Z,12.18
2019-02-16T15:27:21.878Z,12.13
2019-02-16T15:29:50.872Z,12.11
2019-02-16T15:32:38.852Z,12.09
2019-02-16T15:41:37.694Z,11.96
2019-02-16T15:44:06.495Z,11.85
2019-02-16T15:46:35.341Z,11.87
2019-02-16T15:49:04.159Z,11.79
2019-02-16T15:51:32.964Z,11.72
2019-02-16T15:54:02.376Z,11.68
2019-02-16T15:56:31.171Z,11.67
2019-02-16T15:59:00.093Z,11.57
2019-02-16T16:01:48.751Z,11.57
2019-02-16T16:04:21.728Z,11.52
2019-02-16T16:06:50.483Z,11.47
2019-02-16T16:09:38.731Z,11.35
2019-02-16T16:12:26.455Z,11.31
2019-02-16T16:15:00.093Z,11.33
2019-02-16T16:17:35.872Z,11.31
2019-02-16T16:20:23.789Z,11.17
2019-02-16T16:22:59.747Z,11.13
2019-02-16T16:25:47.399Z,11.03
2019-02-16T16:28:35.003Z,10.85
2019-02-16T16:31:22.632Z,10.73
2019-02-16T16:34:10.287Z,10.48
2019-02-16T16:36:57.933Z,10.37
2019-02-16T16:39:45.556Z,10.29
2019-02-16T16:42:33.200Z,10.15
2019-02-16T16:45:20.828Z,10.02
2019-02-16T16:48:08.440Z,9.86
2019-02-16T16:50:56.052Z,9.75
2019-02-16T16:53:43.674Z,9.61
2019-02-16T16:56:31.321Z,9.50
2019-02-16T16:59:18.946Z,9.37
2019-02-16T17:02:06.573Z,9.19
2019-02-16T17:04:54.272Z,9.05
2019-02-16T17:07:30.056Z,8.88
2019-02-16T17:10:17.672Z,8.78
2019-02-16T17:13:05.357Z,8.72
2019-02-16T17:15:52.984Z,8.66
2019-02-16T17:18:40.688Z,8.57
2019-02-16T17:21:28.325Z,8.47
2019-02-16T17:24:15.949Z,8.42
2019-02-16T17:27:03.669Z,8.26
2019-02-16T17:29:51.290Z,8.18
2019-02-16T17:32:38.915Z,8.11
2019-02-16T17:35:25.479Z,8.01
2019-02-16T17:37:59.911Z,7.85
2019-02-16T17:40:47.551Z,7.74
2019-02-16T17:43:35.169Z,7.64
2019-02-16T17:46:22.812Z,7.59
2019-02-16T17:49:10.479Z,7.46
2019-02-16T17:51:58.120Z,7.37
2019-02-16T17:54:34.529Z,7.25
2019-02-16T17:57:22.203Z,7.20
2019-02-16T18:00:09.826Z,7.09
2019-02-16T18:02:57.516Z,7.08
2019-02-16T18:05:45.192Z,7.00
2019-02-16T18:08:33.102Z,6.93
2019-02-16T18:11:20.827Z,6.85
2019-02-16T18:14:08.447Z,6.64
2019-02-16T18:16:44.004Z,6.49
2019-02-16T18:19:21.691Z,6.36
2019-02-16T18:22:09.313Z,6.35
2019-02-16T18:24:56.943Z,6.38
2019-02-16T18:27:44.599Z,6.35
2019-02-16T18:30:32.358Z,6.26
2019-02-16T18:33:10.136Z,6.26
2019-02-16T18:35:57.830Z,6.01
2019-02-16T18:38:32.101Z,5.89
2019-02-16T18:41:19.737Z,5.88
2019-02-16T18:44:07.347Z,5.89
2019-02-16T18:46:54.965Z,5.91
2019-02-16T18:49:42.586Z,5.83
2019-02-16T18:52:30.315Z,5.82
2019-02-16T18:55:17.936Z,5.69
2019-02-16T18:58:05.676Z,5.67
2019-02-16T19:00:53.317Z,5.56
2019-02-16T19:03:40.993Z,5.53
2019-02-16T19:06:28.656Z,5.45
2019-02-16T19:09:16.316Z,5.26
2019-02-16T19:12:04.048Z,5.25
2019-02-16T19:14:51.699Z,5.19
2019-02-16T19:17:39.330Z,5.15
2019-02-16T19:20:27.702Z,4.99
2019-02-16T19:23:15.339Z,5.05
2019-02-16T19:26:02.974Z,5.03
2019-02-16T19:28:50.676Z,5.03
2019-02-16T19:31:38.359Z,5.08
2019-02-16T19:34:26.001Z,4.97
2019-02-16T19:37:13.614Z,4.92
2019-02-16T19:40:01.256Z,4.72
2019-02-16T19:45:37.923Z,4.55
2019-02-16T19:48:25.564Z,4.53
2019-02-16T19:51:13.201Z,4.56
2019-02-16T19:54:00.834Z,4.50
2019-02-16T19:56:48.538Z,4.28
2019-02-16T19:59:36.183Z,4.30
2019-02-16T20:02:23.889Z,4.33
2019-02-16T20:05:11.559Z,4.35
2019-02-16T20:07:59.177Z,4.36
2019-02-16T20:10:46.829Z,4.28
2019-02-16T20:13:34.562Z,4.23
2019-02-16T20:16:22.280Z,4.13
2019-02-16T20:19:10.190Z,4.07
2019-02-16T20:21:57.871Z,3.77
2019-02-16T20:24:45.860Z,3.71
2019-02-16T20:27:21.365Z,3.61
2019-02-16T20:30:09.514Z,3.60
2019-02-16T20:32:57.331Z,3.50
2019-02-16T20:35:37.235Z,3.60
2019-02-16T20:38:24.946Z,3.66
2019-02-16T20:41:12.596Z,3.63
2019-02-16T20:44:00.500Z,3.57
2019-02-16T20:46:50.352Z,3.65
2019-02-16T20:49:40.374Z,3.64
2019-02-16T20:52:28.044Z,3.56
2019-02-16T20:55:15.751Z,3.40
2019-02-16T20:57:51.162Z,3.16
2019-02-16T21:00:38.938Z,3.12
2019-02-16T21:03:26.597Z,3.14
2019-02-16T21:06:35.074Z,3.13
2019-02-16T21:12:14.384Z,3.00
2019-02-16T21:15:02.220Z,2.89
2019-02-16T21:17:51.767Z,2.74
2019-02-16T21:20:39.967Z,2.84
2019-02-16T21:23:27.787Z,2.97
2019-02-16T21:26:15.492Z,3.06
2019-02-16T21:29:03.193Z,2.93
2019-02-16T21:31:50.904Z,2.88
2019-02-16T21:34:38.780Z,2.91
2019-02-16T21:37:45.642Z,2.86
2019-02-16T21:43:37.368Z,2.75
2019-02-16T21:46:25.104Z,2.38
2019-02-16T21:49:03.233Z,2.45
2019-02-16T21:51:50.942Z,2.38
2019-02-16T21:54:35.030Z,2.45
2019-02-16T21:57:22.974Z,2.49
2019-02-16T22:03:14.655Z,2.69
2019-02-16T22:06:02.433Z,2.63
2019-02-16T22:08:50.317Z,2.62
2019-02-16T22:11:38.111Z,2.30
2019-02-16T22:14:06.991Z,2.17
2019-02-16T22:16:35.695Z,2.19
2019-02-16T22:19:04.482Z,2.19
2019-02-16T22:21:33.264Z,2.28
2019-02-16T22:24:02.746Z,2.35
2019-02-16T22:26:31.754Z,2.41
2019-02-16T22:29:00.556Z,2.43
2019-02-16T22:31:29.767Z,2.23
2019-02-16T22:34:01.538Z,1.82
2019-02-16T22:36:30.303Z,1.93
2019-02-16T22:38:59.030Z,2.02
2019-02-16T22:41:27.861Z,2.02
2019-02-16T22:43:56.540Z,1.97
2019-02-16T22:46:25.523Z,2.09
2019-02-16T22:48:54.243Z,2.11
2019-02-16T22:51:22.963Z,2.01
2019-02-16T22:54:10.855Z,1.91
2019-02-16T22:56:39.639Z,1.88
2019-02-16T22:59:08.681Z,1.80
2019-02-16T23:02:17.227Z,1.81
2019-02-16T23:04:46.170Z,1.70
2019-02-16T23:07:14.868Z,1.59
2019-02-16T23:09:43.932Z,1.44
2019-02-16T23:12:16.293Z,1.33
2019-02-16T23:14:45.501Z,1.26
2019-02-16T23:17:14.241Z,1.20
2019-02-16T23:19:43.163Z,1.33
2019-02-16T23:22:31.353Z,1.49
2019-02-16T23:25:33.667Z,1.44
2019-02-16T23:28:02.533Z,1.49
2019-02-16T23:30:31.765Z,1.28
2019-02-16T23:33:00.929Z,1.19
2019-02-16T23:35:29.809Z,1.12
2019-02-16T23:37:59.491Z,1.18
2019-02-16T23:40:28.391Z,1.18
2019-02-16T23:48:08.686Z,1.09
2019-02-16T23:50:37.713Z,1.10
2019-02-16T23:53:06.808Z,1.14
2019-02-16T23:55:54.921Z,1.11
2019-02-16T23:58:24.142Z,1.15
